Terminal Aerodrome Forecast
Issued by NWS

Current Version | Previous Version | Text Only | Print | Product List | Glossary On
Versions: 1 2 3 4 5 6 7 8 9 10 11 12
066
FTUS42 KMLB 051139
TAFSFB
TAF
KSFB 051139Z 0512/0612 16003KT 5SM BR FEW005
      TEMPO 0512/0515 SCT008 BKN015
     FM051500 17010KT P6SM BKN025
     FM051800 18010KT P6SM BKN040
     FM060000 14006KT P6SM VCSH BKN040
     FM060600 17008KT P6SM SCT003 BKN010=

USA.gov is the U.S. government's official web portal to all federal, state and local government web resources and services.